Time;durP1;ratioP1;P1;durP2;ratioP2;P2;SDS_P1;SDS_P2;PMS_P1;PMS_P2;Temp;Humidity;BMP_temperature;BMP_pressure;BME280_temperature;BME280_humidity;BME280_pressure;Samples;Min_cycle;Max_cycle;Signal;HPM_P1;HPM_P2
2022/11/27 00:01:31;;;;;;;14.45;6.18;;;;;;;4.59;95.79;102485.81;4927410;28;20045;-71
2022/11/27 00:03:58;;;;;;;17.67;7.32;;;;;;;4.57;95.55;102488.41;4927804;29;20152;-70
2022/11/27 00:06:29;;;;;;;23.88;6.88;;;;;;;4.56;95.59;102486.66;4924827;28;20052;-70
2022/11/27 00:09:01;;;;;;;19.80;7.20;;;;;;;4.56;95.54;102489.25;4931297;29;20101;-70
2022/11/27 00:11:30;;;;;;;18.55;6.47;;;;;;;4.54;95.34;102479.63;4927559;28;20045;-70
2022/11/27 00:13:59;;;;;;;18.42;7.05;;;;;;;4.54;95.27;102474.41;4932857;28;20067;-70
2022/11/27 00:16:27;;;;;;;13.32;6.78;;;;;;;4.53;95.24;102470.91;4929841;28;20041;-70
2022/11/27 00:18:54;;;;;;;15.68;7.15;;;;;;;4.50;95.29;102465.63;4917269;28;20078;-71
2022/11/27 00:21:32;;;;;;;17.42;7.97;;;;;;;4.48;95.27;102468.19;4924477;29;20047;-71
2022/11/27 00:24:03;;;;;;;18.60;7.95;;;;;;;4.45;95.12;102470.75;4923149;29;20139;-70
2022/11/27 00:26:31;;;;;;;17.58;7.57;;;;;;;4.40;95.07;102454.09;4941080;29;20100;-69
2022/11/27 00:29:05;;;;;;;14.95;7.78;;;;;;;4.38;95.05;102455.78;4938245;29;20103;-70
2022/11/27 00:31:36;;;;;;;19.35;9.02;;;;;;;4.38;95.35;102455.78;4940449;28;20044;-70
2022/11/27 00:34:07;;;;;;;17.67;7.57;;;;;;;4.40;95.29;102454.09;4937432;28;20048;-70
2022/11/27 00:36:36;;;;;;;18.27;8.57;;;;;;;4.41;95.59;102452.38;4932106;28;20050;-70
2022/11/27 00:39:04;;;;;;;16.52;7.28;;;;;;;4.39;95.24;102449.72;4919266;29;20053;-70
2022/11/27 00:41:31;;;;;;;18.98;7.80;;;;;;;4.38;95.13;102449.69;4930794;28;20045;-70
2022/11/27 00:43:58;;;;;;;16.73;7.93;;;;;;;4.37;95.40;102447.94;4930071;28;20056;-71
2022/11/27 00:46:29;;;;;;;19.08;8.50;;;;;;;4.35;95.31;102446.16;4921332;29;20052;-70
2022/11/27 00:49:00;;;;;;;17.35;7.28;;;;;;;4.37;95.27;102446.22;4926634;29;20154;-70
2022/11/27 00:51:29;;;;;;;19.75;8.88;;;;;;;4.35;95.07;102438.34;4932410;28;20048;-70
2022/11/27 00:53:57;;;;;;;19.63;8.25;;;;;;;4.38;95.09;102444.47;4926109;29;20123;-71
2022/11/27 00:56:36;;;;;;;16.88;8.15;;;;;;;4.35;94.90;102440.94;4932481;28;20052;-71
2022/11/27 00:59:06;;;;;;;16.90;7.90;;;;;;;4.35;95.05;102437.47;4925986;29;20040;-71
2022/11/27 01:01:41;;;;;;;14.70;7.80;;;;;;;4.34;94.82;102430.47;4926302;29;20513;-71
2022/11/27 01:04:13;;;;;;;16.17;7.60;;;;;;;4.33;95.03;102439.16;4930963;28;20044;-70
2022/11/27 01:06:41;;;;;;;16.15;7.60;;;;;;;4.34;95.11;102440.94;4930867;29;20052;-71
2022/11/27 01:09:12;;;;;;;20.40;7.28;;;;;;;4.33;94.96;102445.25;4927419;28;20056;-71
2022/11/27 01:11:41;;;;;;;20.42;7.85;;;;;;;4.30;94.98;102447.81;4924996;28;20493;-70
2022/11/27 01:14:15;;;;;;;18.42;8.15;;;;;;;4.29;94.89;102435.59;4923532;28;20983;-70
2022/11/27 01:16:43;;;;;;;14.20;7.60;;;;;;;4.27;94.73;102432.06;4929925;28;20118;-68
2022/11/27 01:19:12;;;;;;;14.77;7.47;;;;;;;4.25;94.66;102430.28;4919749;28;20532;-68
2022/11/27 01:21:40;;;;;;;16.15;7.47;;;;;;;4.19;94.61;102424.06;4922426;28;20051;-69
2022/11/27 01:24:09;;;;;;;17.50;7.75;;;;;;;4.15;94.63;102418.75;4925213;28;20182;-69
2022/11/27 01:26:35;;;;;;;18.70;7.38;;;;;;;4.12;94.58;102416.97;4931861;28;20571;-69
2022/11/27 01:29:03;;;;;;;20.02;7.78;;;;;;;4.07;94.49;102415.97;4923977;28;20051;-69
2022/11/27 01:31:32;;;;;;;18.20;7.47;;;;;;;4.00;94.68;102414.97;4918139;29;20138;-68
2022/11/27 01:34:05;;;;;;;17.40;7.57;;;;;;;3.96;94.61;102418.34;4931535;28;20116;-68
2022/11/27 01:36:33;;;;;;;17.17;7.47;;;;;;;3.91;94.59;102417.38;4930273;28;20104;-68
2022/11/27 01:39:03;;;;;;;16.10;7.05;;;;;;;3.85;94.69;102418.13;4926826;28;20060;-68
2022/11/27 01:41:34;;;;;;;15.13;6.88;;;;;;;3.81;94.78;102410.19;4923048;28;20088;-68
2022/11/27 01:44:23;;;;;;;14.40;6.90;;;;;;;3.79;95.08;102415.34;4931993;28;20044;-68
2022/11/27 01:47:06;;;;;;;19.77;7.35;;;;;;;3.76;95.31;102411.78;4924195;29;20056;-71
2022/11/27 01:49:40;;;;;;;16.05;7.07;;;;;;;3.72;95.22;102410.84;4927674;28;20052;-71
2022/11/27 01:52:19;;;;;;;16.10;7.07;;;;;;;3.69;95.56;102398.63;4921566;28;20037;-71
2022/11/27 01:54:55;;;;;;;15.15;7.32;;;;;;;3.70;95.51;102409.91;4926091;29;20255;-70
2022/11/27 01:57:37;;;;;;;20.42;7.00;;;;;;;3.69;95.66;102406.44;4930277;29;20502;-70
2022/11/27 02:00:12;;;;;;;16.23;6.82;;;;;;;3.70;95.75;102402.09;4930610;28;20459;-70
2022/11/27 02:02:42;;;;;;;15.60;7.30;;;;;;;3.71;95.94;102399.50;4930200;29;20418;-70
2022/11/27 02:05:16;;;;;;;16.15;7.15;;;;;;;3.78;96.17;102395.31;4930873;28;20103;-70
2022/11/27 02:07:46;;;;;;;17.90;7.03;;;;;;;3.83;96.32;102382.38;4929072;29;20048;-70
2022/11/27 02:10:14;;;;;;;13.68;6.53;;;;;;;3.88;96.30;102372.94;4927488;28;20488;-70
2022/11/27 02:13:08;;;;;;;16.13;7.10;;;;;;;3.96;96.51;102362.69;4928330;29;20481;-70
2022/11/27 02:15:52;;;;;;;20.50;6.60;;;;;;;4.00;96.44;102354.06;4915257;29;20575;-70
2022/11/27 02:18:53;;;;;;;15.13;6.20;;;;;;;4.07;96.29;102347.25;4927396;29;20048;-71
2022/11/27 02:21:36;;;;;;;13.63;6.22;;;;;;;4.12;96.21;102341.25;4927302;29;20095;-69
2022/11/27 02:24:42;;;;;;;16.45;5.88;;;;;;;4.17;96.20;102329.16;4932802;28;20036;-69
2022/11/27 02:27:57;;;;;;;19.83;6.30;;;;;;;4.20;95.76;102329.25;4917978;29;20202;-69
2022/11/27 02:30:25;;;;;;;12.70;5.47;;;;;;;4.24;95.43;102317.13;4914807;29;20132;-69
2022/11/27 02:33:01;;;;;;;17.30;6.43;;;;;;;4.26;95.36;102314.56;4933946;29;20055;-68
2022/11/27 02:35:52;;;;;;;15.68;6.32;;;;;;;4.29;95.29;102314.59;4931967;28;20051;-68
2022/11/27 02:38:31;;;;;;;18.52;6.38;;;;;;;4.32;95.32;102309.44;4931852;28;20052;-68
2022/11/27 02:41:05;;;;;;;12.90;6.05;;;;;;;4.34;94.83;102294.69;4934516;28;20044;-68
2022/11/27 02:43:37;;;;;;;13.80;5.57;;;;;;;4.35;94.27;102297.31;4929441;29;20079;-69
2022/11/27 02:46:09;;;;;;;18.00;5.65;;;;;;;4.37;94.47;102296.47;4927546;28;20871;-69
2022/11/27 02:49:05;;;;;;;15.80;5.85;;;;;;;4.32;94.32;102275.50;4917218;29;20077;-68
2022/11/27 02:51:51;;;;;;;17.88;6.70;;;;;;;4.37;93.97;102278.19;4920532;29;20049;-69
2022/11/27 02:54:25;;;;;;;13.45;6.10;;;;;;;4.33;93.98;102272.03;4934049;29;20049;-70
2022/11/27 02:56:56;;;;;;;13.80;5.25;;;;;;;4.31;93.97;102263.31;4929410;28;20052;-70
2022/11/27 02:59:28;;;;;;;17.75;5.20;;;;;;;4.34;93.94;102273.81;4928140;28;20083;-70
2022/11/27 03:02:07;;;;;;;15.00;4.57;;;;;;;4.34;94.04;102277.28;4921878;28;20044;-69
2022/11/27 03:04:45;;;;;;;13.25;5.07;;;;;;;4.35;93.88;102286.88;4931677;28;20165;-70
2022/11/27 03:07:26;;;;;;;17.15;5.70;;;;;;;4.37;93.86;102289.53;4929062;28;20048;-70
2022/11/27 03:10:02;;;;;;;13.40;5.38;;;;;;;4.40;93.90;102286.97;4932914;29;20036;-71
2022/11/27 03:12:29;;;;;;;13.88;4.68;;;;;;;4.43;93.92;102299.19;4923921;29;20127;-71
2022/11/27 03:14:56;;;;;;;15.35;5.10;;;;;;;4.42;93.67;102287.88;4925579;29;20132;-70
2022/11/27 03:17:51;;;;;;;15.00;5.47;;;;;;;4.43;93.34;102284.41;4931516;29;20049;-70
2022/11/27 03:20:35;;;;;;;13.82;4.70;;;;;;;4.47;93.35;102274.91;4933038;28;20044;-70
2022/11/27 03:23:02;;;;;;;15.75;5.07;;;;;;;4.48;93.39;102272.31;4934083;28;20549;-70
2022/11/27 03:25:30;;;;;;;14.00;4.60;;;;;;;4.51;93.16;102268.91;4930493;28;20045;-69
2022/11/27 03:28:09;;;;;;;15.57;4.72;;;;;;;4.55;93.23;102275.91;4925440;28;20048;-70
2022/11/27 03:30:39;;;;;;;10.40;4.50;;;;;;;4.60;93.49;102276.91;4921402;29;20080;-69
2022/11/27 03:33:06;;;;;;;12.20;5.22;;;;;;;4.63;93.21;102274.31;4927504;28;20534;-70
2022/11/27 03:35:34;;;;;;;13.32;5.10;;;;;;;4.67;92.86;102270.06;4932407;28;20129;-70
2022/11/27 03:38:02;;;;;;;12.93;4.30;;;;;;;4.68;92.86;102266.56;4925547;28;20466;-70
2022/11/27 03:40:49;;;;;;;11.02;4.10;;;;;;;4.72;92.73;102270.13;4927315;29;20052;-70
2022/11/27 03:43:29;;;;;;;12.30;4.15;;;;;;;4.72;92.38;102264.91;4933465;28;20096;-70
2022/11/27 03:46:01;;;;;;;16.02;4.75;;;;;;;4.72;92.18;102270.13;4924137;28;20040;-71
2022/11/27 03:48:59;;;;;;;11.93;4.70;;;;;;;4.75;92.27;102271.06;4922143;29;20052;-71
2022/11/27 03:52:01;;;;;;;13.20;5.10;;;;;;;4.78;92.27;102276.31;4931395;28;20040;-69
2022/11/27 03:54:56;;;;;;;14.30;4.70;;;;;;;4.80;92.20;102274.59;4933514;28;20055;-70
2022/11/27 03:58:00;;;;;;;12.50;4.85;;;;;;;4.83;92.35;102265.97;4917882;29;20049;-70
2022/11/27 04:00:39;;;;;;;14.05;5.35;;;;;;;4.84;91.98;102264.22;4940009;28;20541;-70
2022/11/27 04:03:11;;;;;;;10.43;4.45;;;;;;;4.87;91.98;102266.88;4924042;28;20044;-69
2022/11/27 04:05:39;;;;;;;12.43;4.78;;;;;;;4.87;91.78;102264.28;4932694;28;20051;-69
2022/11/27 04:08:06;;;;;;;12.88;4.70;;;;;;;4.89;91.70;102257.31;4933713;28;20403;-69
2022/11/27 04:10:33;;;;;;;10.45;4.47;;;;;;;4.90;91.82;102251.22;4932669;28;20448;-70
2022/11/27 04:13:00;;;;;;;16.00;4.65;;;;;;;4.93;91.64;102244.34;4920119;28;20125;-69
2022/11/27 04:15:27;;;;;;;14.30;4.47;;;;;;;4.93;91.61;102246.97;4917868;29;20040;-70
2022/11/27 04:17:54;;;;;;;10.57;4.63;;;;;;;4.95;91.80;102234.78;4924730;29;20048;-70
2022/11/27 04:20:21;;;;;;;12.70;4.75;;;;;;;4.97;91.28;102240.03;4932105;28;20036;-70
2022/11/27 04:22:48;;;;;;;13.98;4.75;;;;;;;4.97;91.09;102242.66;4929981;28;20043;-72
2022/11/27 04:25:22;;;;;;;13.05;5.03;;;;;;;4.98;91.11;102242.66;4932148;29;20454;-71
2022/11/27 04:27:49;;;;;;;12.98;4.40;;;;;;;4.98;90.92;102236.56;4933385;29;20048;-69
2022/11/27 04:30:17;;;;;;;10.70;4.85;;;;;;;4.96;90.60;102236.53;4929284;28;22327;-71
2022/11/27 04:32:44;;;;;;;15.82;4.97;;;;;;;4.94;90.86;102238.25;4922434;29;20044;-70
2022/11/27 04:35:11;;;;;;;13.07;5.63;;;;;;;4.94;90.74;102239.97;4931690;29;20040;-71
2022/11/27 04:37:38;;;;;;;10.90;4.95;;;;;;;4.95;91.10;102234.78;4932201;28;20057;-71
2022/11/27 04:40:10;;;;;;;14.05;5.20;;;;;;;4.98;90.84;102240.06;4929984;28;20060;-70
2022/11/27 04:42:37;;;;;;;10.85;4.80;;;;;;;4.98;90.15;102234.81;4926857;29;20044;-70
2022/11/27 04:45:04;;;;;;;13.93;5.45;;;;;;;4.98;90.21;102236.56;4929033;28;20040;-70
2022/11/27 04:47:33;;;;;;;13.50;4.90;;;;;;;4.96;90.18;102239.16;4923287;28;20052;-73
2022/11/27 04:50:01;;;;;;;9.68;4.70;;;;;;;4.97;90.40;102240.91;4924016;28;20056;-73
2022/11/27 04:52:28;;;;;;;12.13;5.18;;;;;;;5.01;90.17;102238.34;4932361;29;20403;-73
2022/11/27 04:54:55;;;;;;;15.00;5.20;;;;;;;4.99;90.39;102238.31;4931731;28;20044;-73
2022/11/27 04:57:26;;;;;;;13.77;5.13;;;;;;;5.00;90.23;102232.22;4931062;29;20047;-73
2022/11/27 04:59:53;;;;;;;10.38;4.55;;;;;;;5.02;90.22;102234.88;4927099;29;20104;-73
2022/11/27 05:02:21;;;;;;;15.00;5.03;;;;;;;5.02;90.18;102235.75;4930718;28;20052;-73
2022/11/27 05:04:49;;;;;;;14.20;5.53;;;;;;;5.01;90.24;102231.38;4927666;29;20043;-73
2022/11/27 05:07:18;;;;;;;11.85;5.15;;;;;;;5.02;90.12;102224.44;4921524;29;20108;-73
2022/11/27 05:09:45;;;;;;;16.35;5.75;;;;;;;5.02;89.93;102225.28;4925158;28;20040;-73
2022/11/27 05:12:12;;;;;;;10.35;4.97;;;;;;;5.01;89.92;102213.06;4922874;29;20052;-74
2022/11/27 05:14:39;;;;;;;15.13;5.55;;;;;;;5.01;89.89;102207.84;4927607;28;20593;-73
2022/11/27 05:17:07;;;;;;;16.70;5.65;;;;;;;5.00;89.87;102213.94;4928878;28;20048;-73
2022/11/27 05:19:35;;;;;;;13.90;5.20;;;;;;;4.99;89.77;102201.72;4924921;28;20052;-74
2022/11/27 05:22:05;;;;;;;12.95;5.35;;;;;;;4.98;89.80;102200.84;4933109;28;20040;-74
2022/11/27 05:24:32;;;;;;;12.85;5.53;;;;;;;4.97;89.84;102196.47;4932350;28;20104;-73
2022/11/27 05:26:59;;;;;;;14.50;5.55;;;;;;;4.96;89.94;102189.47;4933042;28;20040;-74
2022/11/27 05:29:27;;;;;;;15.80;6.30;;;;;;;4.98;89.82;102190.41;4929738;28;20075;-71
2022/11/27 05:31:54;;;;;;;12.27;5.38;;;;;;;4.97;89.83;102185.16;4936686;28;20048;-71
2022/11/27 05:34:21;;;;;;;10.65;5.22;;;;;;;4.97;89.80;102175.56;4939279;28;20111;-72
2022/11/27 05:36:49;;;;;;;12.68;6.28;;;;;;;4.97;89.73;102164.25;4935836;28;20044;-72
2022/11/27 05:39:16;;;;;;;14.20;6.10;;;;;;;4.96;89.60;102160.72;4934054;28;20541;-72
2022/11/27 05:41:43;;;;;;;15.32;6.03;;;;;;;4.95;89.83;102166.81;4942498;28;20084;-72
2022/11/27 05:44:14;;;;;;;14.27;5.70;;;;;;;4.96;89.96;102170.31;4939181;28;20052;-71
2022/11/27 05:46:43;;;;;;;11.75;5.85;;;;;;;4.98;90.03;102161.66;4938207;28;20717;-70
2022/11/27 05:49:15;;;;;;;14.68;5.60;;;;;;;5.01;90.07;102160.81;4928507;28;20567;-72
2022/11/27 05:51:43;;;;;;;14.07;6.03;;;;;;;5.03;89.84;102166.94;4936518;28;20040;-70
2022/11/27 05:54:18;;;;;;;14.07;6.47;;;;;;;5.03;89.75;102166.94;4930351;28;20044;-71
2022/11/27 05:56:46;;;;;;;13.60;6.22;;;;;;;5.04;89.76;102168.69;4937228;28;20052;-71
2022/11/27 05:59:14;;;;;;;13.50;6.20;;;;;;;5.06;89.58;102161.75;4935731;28;20047;-71
2022/11/27 06:01:44;;;;;;;14.23;6.18;;;;;;;5.09;89.69;102163.53;4933593;28;20059;-71
2022/11/27 06:04:12;;;;;;;13.40;6.18;;;;;;;5.08;89.31;102153.94;4933273;28;20497;-71
2022/11/27 06:06:40;;;;;;;14.63;6.20;;;;;;;5.07;89.15;102160.00;4964600;28;20175;-71
2022/11/27 06:09:08;;;;;;;11.32;5.88;;;;;;;5.07;89.32;102153.06;4942585;28;20052;-72
2022/11/27 06:11:40;;;;;;;11.15;6.22;;;;;;;5.08;89.36;102154.81;4937652;28;20048;-72
2022/11/27 06:14:10;;;;;;;10.57;5.47;;;;;;;5.08;89.38;102146.97;4963628;28;20019;-72
2022/11/27 06:16:39;;;;;;;12.95;6.15;;;;;;;5.10;89.37;102141.75;4960620;28;20079;-72
2022/11/27 06:19:07;;;;;;;14.73;5.97;;;;;;;5.11;89.09;102140.91;4956344;28;20036;-70
2022/11/27 06:21:36;;;;;;;16.17;6.28;;;;;;;5.11;89.23;102146.13;4943423;28;20044;-71
2022/11/27 06:24:04;;;;;;;16.05;7.07;;;;;;;5.12;89.20;102135.69;4934794;28;20040;-71
2022/11/27 06:26:33;;;;;;;14.25;6.60;;;;;;;5.12;89.50;102135.69;4934983;28;20067;-71
2022/11/27 06:29:02;;;;;;;13.77;6.78;;;;;;;5.15;89.11;102132.22;4935222;28;20070;-70
2022/11/27 06:31:32;;;;;;;14.93;6.07;;;;;;;5.15;88.93;102126.13;4931907;28;20100;-69
2022/11/27 06:34:01;;;;;;;14.00;6.75;;;;;;;5.15;89.17;102131.38;4930837;28;20054;-69
2022/11/27 06:36:37;;;;;;;13.15;6.60;;;;;;;5.17;88.93;102133.13;4932152;28;20070;-70
2022/11/27 06:39:06;;;;;;;15.27;7.10;;;;;;;5.16;88.85;102139.22;4933610;28;20056;-69
2022/11/27 06:41:34;;;;;;;15.93;6.97;;;;;;;5.17;88.69;102130.50;4938449;28;20079;-69
2022/11/27 06:44:01;;;;;;;16.88;7.38;;;;;;;5.17;88.74;102120.06;4936301;28;20045;-70
2022/11/27 06:46:29;;;;;;;13.25;6.53;;;;;;;5.19;88.50;102125.31;4933773;28;20047;-71
2022/11/27 06:48:58;;;;;;;16.30;7.25;;;;;;;5.20;88.84;102124.44;4936945;28;20055;-71
2022/11/27 06:51:30;;;;;;;14.10;7.13;;;;;;;5.20;88.86;102114.88;4935701;28;20106;-71
2022/11/27 06:54:00;;;;;;;16.17;7.10;;;;;;;5.23;88.84;102128.00;4929680;28;20040;-71
2022/11/27 06:56:30;;;;;;;13.85;7.60;;;;;;;5.24;88.74;102129.72;4926757;28;20506;-71
2022/11/27 06:59:00;;;;;;;19.38;8.90;;;;;;;5.27;88.88;102126.28;4921712;28;20041;-70
2022/11/27 07:01:30;;;;;;;17.42;9.68;;;;;;;5.27;88.89;102124.53;4931677;28;20494;-72
2022/11/27 07:03:59;;;;;;;16.30;7.55;;;;;;;5.28;88.81;102114.97;4937241;28;20047;-72
2022/11/27 07:06:27;;;;;;;15.48;8.68;;;;;;;5.29;88.84;102124.59;4940885;28;20577;-72
2022/11/27 07:08:55;;;;;;;18.58;9.02;;;;;;;5.30;88.76;102115.84;4945196;28;20147;-71
2022/11/27 07:11:27;;;;;;;21.25;11.88;;;;;;;5.34;88.57;102116.78;4949488;28;20060;-71
2022/11/27 07:14:00;;;;;;;14.65;7.75;;;;;;;5.32;88.51;102110.66;4940409;28;20043;-71
2022/11/27 07:16:32;;;;;;;17.15;8.77;;;;;;;5.34;88.23;102106.34;4941180;28;20047;-71
2022/11/27 07:19:05;;;;;;;18.70;10.13;;;;;;;5.34;88.46;102111.56;4939373;28;20056;-71
2022/11/27 07:21:36;;;;;;;17.35;8.45;;;;;;;5.38;88.39;102102.88;4932029;28;20044;-71
2022/11/27 07:24:05;;;;;;;16.58;7.70;;;;;;;5.47;88.95;102100.34;4931063;28;20040;-71
2022/11/27 07:26:33;;;;;;;15.00;6.97;;;;;;;5.70;90.36;102095.38;4933358;28;20048;-71
2022/11/27 07:29:01;;;;;;;17.10;8.07;;;;;;;5.96;89.93;102099.97;4932189;28;20072;-71
2022/11/27 07:31:30;;;;;;;15.85;6.90;;;;;;;6.08;87.45;102095.75;4931067;28;20048;-70
2022/11/27 07:33:58;;;;;;;16.17;7.85;;;;;;;6.07;86.63;102092.25;4933483;28;20048;-71
2022/11/27 07:36:29;;;;;;;15.75;7.68;;;;;;;6.07;86.14;102094.88;4932212;28;20796;-69
2022/11/27 07:39:01;;;;;;;18.23;7.40;;;;;;;6.14;86.22;102085.31;4932528;28;20049;-70
2022/11/27 07:41:29;;;;;;;13.13;7.15;;;;;;;6.27;85.26;102083.66;4934481;28;20554;-69
2022/11/27 07:44:02;;;;;;;14.07;7.07;;;;;;;6.30;84.67;102094.19;4942894;28;20036;-69
2022/11/27 07:46:31;;;;;;;15.80;7.30;;;;;;;6.33;84.68;102099.44;4923882;29;20520;-69
2022/11/27 07:48:59;;;;;;;15.90;7.57;;;;;;;6.34;84.64;102085.50;4934290;28;20418;-67
2022/11/27 07:51:27;;;;;;;15.93;7.50;;;;;;;6.34;84.46;102088.09;4933424;28;20075;-68
2022/11/27 07:53:55;;;;;;;13.27;7.20;;;;;;;6.32;84.36;102084.59;4929220;28;20477;-68
2022/11/27 07:56:22;;;;;;;17.92;7.53;;;;;;;6.31;84.18;102081.09;4922782;28;20108;-68
2022/11/27 07:58:50;;;;;;;13.48;7.72;;;;;;;6.29;84.37;102085.47;4934251;28;20291;-68
2022/11/27 08:01:20;;;;;;;15.20;7.85;;;;;;;6.29;84.52;102074.97;4928796;28;20832;-69
2022/11/27 08:03:49;;;;;;;15.82;7.50;;;;;;;6.34;84.45;102077.63;4937576;28;20044;-69
2022/11/27 08:06:26;;;;;;;16.38;7.75;;;;;;;6.32;84.53;102066.25;4941171;28;20040;-69
2022/11/27 08:08:56;;;;;;;20.45;10.38;;;;;;;6.32;84.79;102068.88;4934239;28;20502;-68
2022/11/27 08:11:31;;;;;;;19.45;9.95;;;;;;;6.34;84.60;102059.28;4935899;28;20060;-69
2022/11/27 08:14:04;;;;;;;17.92;9.02;;;;;;;6.29;84.54;102061.00;4936886;28;20039;-69
2022/11/27 08:16:32;;;;;;;15.50;8.43;;;;;;;6.22;84.85;102057.44;4928758;28;20049;-69
2022/11/27 08:19:00;;;;;;;16.70;7.75;;;;;;;6.18;85.20;102046.06;4925452;29;20168;-69
2022/11/27 08:21:31;;;;;;;14.85;8.27;;;;;;;6.18;85.54;102048.69;4928697;28;20052;-68
2022/11/27 08:23:58;;;;;;;16.48;7.97;;;;;;;6.21;85.65;102047.84;4926227;28;20048;-69
2022/11/27 08:26:28;;;;;;;15.88;7.82;;;;;;;6.26;85.86;102048.75;4932605;28;20072;-71
2022/11/27 08:28:56;;;;;;;16.17;7.60;;;;;;;6.24;85.55;102052.25;4917695;29;20049;-70
2022/11/27 08:31:24;;;;;;;18.75;8.70;;;;;;;6.11;85.78;102056.47;4931781;28;20072;-69
2022/11/27 08:33:51;;;;;;;16.17;8.48;;;;;;;5.98;86.24;102048.53;4929219;28;20059;-68
2022/11/27 08:36:18;;;;;;;13.85;7.97;;;;;;;5.87;86.84;102050.16;4933128;28;20124;-69
2022/11/27 08:38:46;;;;;;;14.05;7.75;;;;;;;5.79;87.14;102047.47;4932130;29;20175;-69
2022/11/27 08:41:13;;;;;;;17.42;8.10;;;;;;;5.73;87.47;102050.91;4930992;29;20517;-68
2022/11/27 08:43:40;;;;;;;15.35;7.68;;;;;;;5.67;87.88;102045.63;4933316;28;20048;-69
2022/11/27 08:46:08;;;;;;;18.23;8.93;;;;;;;5.64;88.19;102048.22;4944307;28;20039;-68
2022/11/27 08:48:36;;;;;;;16.80;8.45;;;;;;;5.62;88.51;102054.31;4952048;28;20052;-67
2022/11/27 08:51:10;;;;;;;15.75;8.32;;;;;;;5.56;88.75;102040.28;4932406;28;20082;-68
2022/11/27 08:53:38;;;;;;;15.77;8.82;;;;;;;5.53;89.24;102037.66;4932161;28;20044;-67
2022/11/27 08:56:20;;;;;;;23.10;9.13;;;;;;;5.52;89.40;102035.00;4931248;29;20044;-67
2022/11/27 08:58:51;;;;;;;17.85;8.35;;;;;;;5.49;89.68;102029.78;4931979;28;20553;-67
2022/11/27 09:01:26;;;;;;;16.25;8.55;;;;;;;5.46;90.14;102027.13;4925612;29;20044;-69
2022/11/27 09:03:54;;;;;;;18.92;8.55;;;;;;;5.47;90.54;102026.25;4929396;28;21192;-71
2022/11/27 09:06:27;;;;;;;19.15;8.65;;;;;;;5.49;90.87;102024.53;4932658;28;20488;-70
2022/11/27 09:08:57;;;;;;;26.05;12.32;;;;;;;5.49;91.16;102016.69;4931482;29;20048;-70
2022/11/27 09:11:27;;;;;;;19.77;9.50;;;;;;;5.46;91.16;101999.22;4926541;29;20064;-71
2022/11/27 09:13:54;;;;;;;30.60;19.17;;;;;;;5.46;91.24;101996.59;4926359;29;20048;-71
2022/11/27 09:16:22;;;;;;;23.75;10.20;;;;;;;5.47;91.62;102007.94;4915686;29;20049;-70
2022/11/27 09:18:51;;;;;;;15.30;8.82;;;;;;;5.47;91.76;101995.72;4930210;29;20044;-70
2022/11/27 09:21:21;;;;;;;18.50;10.27;;;;;;;5.47;91.99;102000.97;4932274;28;20047;-70
2022/11/27 09:23:55;;;;;;;13.73;7.38;;;;;;;5.48;92.16;101994.00;4930445;28;20973;-71
2022/11/27 09:26:24;;;;;;;17.67;9.38;;;;;;;5.50;92.13;101992.25;4946965;28;20240;-70
2022/11/27 09:28:53;;;;;;;15.50;9.38;;;;;;;5.49;92.36;101988.78;4930599;28;20155;-71
2022/11/27 09:31:22;;;;;;;15.57;7.43;;;;;;;5.50;92.36;101987.91;4926521;28;20051;-72
2022/11/27 09:33:49;;;;;;;17.35;8.27;;;;;;;5.52;92.60;101988.81;4921895;28;20040;-71
2022/11/27 09:36:24;;;;;;;14.55;7.47;;;;;;;5.54;92.61;101988.81;4934448;28;20135;-71
2022/11/27 09:38:51;;;;;;;14.98;7.07;;;;;;;5.58;92.61;101995.84;4948283;28;20071;-72
2022/11/27 09:41:51;;;;;;;14.25;7.25;;;;;;;5.62;92.71;101989.75;4932188;28;20120;-70
2022/11/27 09:44:44;;;;;;;15.35;7.85;;;;;;;5.66;92.81;101994.16;4940612;28;20541;-71
2022/11/27 09:47:33;;;;;;;16.30;7.45;;;;;;;5.70;93.22;101987.22;4939691;28;20055;-71
2022/11/27 09:50:23;;;;;;;12.70;7.18;;;;;;;5.71;92.88;101982.00;4938165;29;20145;-72
2022/11/27 09:53:02;;;;;;;15.65;7.63;;;;;;;5.72;93.20;101988.97;4932518;29;20052;-72
2022/11/27 09:55:45;;;;;;;16.42;7.68;;;;;;;5.78;93.32;101993.38;4939174;28;20047;-72
2022/11/27 09:58:41;;;;;;;14.30;7.20;;;;;;;5.85;93.22;101997.78;4920512;28;20059;-68
2022/11/27 10:01:21;;;;;;;14.18;7.03;;;;;;;5.88;92.99;101991.72;4918830;29;20048;-68
2022/11/27 10:03:54;;;;;;;16.13;7.20;;;;;;;5.89;93.13;101999.59;4933341;29;20541;-68
2022/11/27 10:06:53;;;;;;;13.77;7.20;;;;;;;5.94;92.97;101983.91;4919003;29;20044;-69
2022/11/27 10:09:50;;;;;;;14.73;6.97;;;;;;;5.97;93.09;101985.66;4919784;29;20517;-68
2022/11/27 10:12:48;;;;;;;15.65;7.50;;;;;;;6.01;93.20;101988.34;4919329;29;20049;-68
2022/11/27 10:15:50;;;;;;;15.75;7.25;;;;;;;6.06;93.13;101980.53;4920680;29;20124;-68
2022/11/27 10:18:42;;;;;;;12.55;6.82;;;;;;;6.11;93.21;101975.31;4933183;28;20071;-68
2022/11/27 10:21:37;;;;;;;12.85;7.15;;;;;;;6.15;93.19;101969.25;4939614;28;20044;-68
2022/11/27 10:24:22;;;;;;;12.88;7.18;;;;;;;6.19;93.20;101974.50;4939409;28;20421;-70
2022/11/27 10:26:56;;;;;;;14.27;6.82;;;;;;;6.23;93.18;101964.94;4930152;28;20051;-70
2022/11/27 10:29:45;;;;;;;16.33;7.72;;;;;;;6.29;93.04;101959.75;4930998;28;20052;-69
2022/11/27 10:32:28;;;;;;;14.38;7.15;;;;;;;6.35;93.08;101962.38;4926761;29;20151;-69
2022/11/27 10:35:20;;;;;;;11.40;7.50;;;;;;;6.39;93.10;101951.94;4927570;29;20044;-69
2022/11/27 10:38:10;;;;;;;15.68;7.25;;;;;;;6.45;92.62;101946.72;4929104;28;20127;-69
2022/11/27 10:41:18;;;;;;;12.65;6.95;;;;;;;6.47;92.59;101939.75;4932797;29;20048;-69
2022/11/27 10:44:32;;;;;;;13.88;7.60;;;;;;;6.53;92.90;101935.41;4929807;29;20052;-70
2022/11/27 10:47:09;;;;;;;14.45;7.60;;;;;;;6.60;92.85;101930.19;4929208;29;20935;-70
2022/11/27 10:49:39;;;;;;;12.27;7.38;;;;;;;6.64;92.73;101924.09;4931989;29;20865;-70
2022/11/27 10:52:14;;;;;;;12.02;6.93;;;;;;;6.70;92.88;101920.63;4925921;29;20044;-70
2022/11/27 10:55:08;;;;;;;11.73;6.63;;;;;;;6.72;92.54;101908.38;4926551;29;20052;-70
2022/11/27 10:58:14;;;;;;;13.23;7.03;;;;;;;6.77;92.46;101904.03;4928126;28;20145;-70
2022/11/27 11:00:41;;;;;;;12.60;6.95;;;;;;;6.78;92.70;101911.03;4929757;29;20060;-71
2022/11/27 11:03:17;;;;;;;15.23;7.07;;;;;;;6.83;92.78;101909.28;4930060;28;20037;-70
2022/11/27 11:05:59;;;;;;;16.63;9.63;;;;;;;6.86;92.20;101911.91;4928372;29;20055;-71
2022/11/27 11:08:48;;;;;;;16.40;9.80;;;;;;;6.85;92.26;101897.06;4927999;28;20044;-71
2022/11/27 11:11:25;;;;;;;13.63;8.55;;;;;;;6.88;92.15;101902.31;4929564;29;20044;-71
2022/11/27 11:13:53;;;;;;;12.30;7.30;;;;;;;6.89;92.37;101898.81;4933208;28;20486;-70
2022/11/27 11:16:24;;;;;;;13.35;7.03;;;;;;;6.93;91.86;101892.69;4927258;28;20052;-69
2022/11/27 11:18:59;;;;;;;15.27;10.10;;;;;;;6.93;92.02;101887.44;4927694;28;20123;-70
2022/11/27 11:21:37;;;;;;;17.30;11.45;;;;;;;6.93;91.61;101882.19;4928379;28;20051;-69
2022/11/27 11:24:27;;;;;;;16.13;7.05;;;;;;;6.92;91.58;101882.22;4928614;28;20040;-70
2022/11/27 11:26:59;;;;;;;14.15;10.13;;;;;;;6.92;91.62;101862.09;4924891;28;20047;-71
2022/11/27 11:29:50;;;;;;;14.07;7.43;;;;;;;6.94;91.72;101870.00;4928831;28;20047;-71
2022/11/27 11:32:31;;;;;;;14.85;8.13;;;;;;;6.97;91.91;101872.59;4926122;28;20048;-71
2022/11/27 11:35:07;;;;;;;16.90;7.00;;;;;;;6.96;91.35;101852.53;4935524;28;20047;-71
2022/11/27 11:37:40;;;;;;;11.60;6.88;;;;;;;6.94;91.51;101851.63;4934531;28;20918;-71
2022/11/27 11:40:15;;;;;;;12.00;6.38;;;;;;;6.96;91.35;101852.53;4930291;28;20056;-70
2022/11/27 11:43:08;;;;;;;10.23;6.78;;;;;;;6.95;91.09;101850.75;4934254;28;20764;-71
2022/11/27 11:45:47;;;;;;;12.63;7.35;;;;;;;6.95;91.45;101848.16;4928683;29;20125;-71
2022/11/27 11:48:24;;;;;;;13.43;8.15;;;;;;;6.96;91.65;101842.03;4934350;28;20040;-70
2022/11/27 11:51:13;;;;;;;10.07;6.22;;;;;;;6.99;91.46;101842.91;4946794;28;20818;-71
2022/11/27 11:54:13;;;;;;;13.15;6.45;;;;;;;6.98;91.32;101843.78;4947525;28;20113;-71
2022/11/27 11:56:48;;;;;;;14.32;7.13;;;;;;;6.96;91.58;101837.66;4925691;28;20067;-71